sensor_id;sensor_type;location;lat;lon;timestamp;P1;durP1;ratioP1;P2;durP2;ratioP2
3101;SDS011;1561;42.666;23.392;2023-05-10T00:08:11;18.13;;;12.13;;
3101;SDS011;1561;42.666;23.392;2023-05-10T00:10:37;17.10;;;13.03;;
3101;SDS011;1561;42.666;23.392;2023-05-10T00:16:07;17.40;;;12.23;;
3101;SDS011;1561;42.666;23.392;2023-05-10T00:21:42;15.60;;;12.50;;
3101;SDS011;1561;42.666;23.392;2023-05-10T00:27:14;16.50;;;12.80;;
3101;SDS011;1561;42.666;23.392;2023-05-10T00:32:44;14.83;;;12.00;;
3101;SDS011;1561;42.666;23.392;2023-05-10T00:35:10;17.13;;;13.13;;
3101;SDS011;1561;42.666;23.392;2023-05-10T00:46:45;16.17;;;12.57;;
3101;SDS011;1561;42.666;23.392;2023-05-10T00:59:07;17.07;;;11.10;;
3101;SDS011;1561;42.666;23.392;2023-05-10T01:04:46;15.93;;;12.87;;
3101;SDS011;1561;42.666;23.392;2023-05-10T01:10:05;14.20;;;10.40;;
3101;SDS011;1561;42.666;23.392;2023-05-10T01:15:36;10.87;;;9.77;;
3101;SDS011;1561;42.666;23.392;2023-05-10T01:18:04;12.03;;;9.67;;
3101;SDS011;1561;42.666;23.392;2023-05-10T01:20:35;10.57;;;8.67;;
3101;SDS011;1561;42.666;23.392;2023-05-10T01:23:20;12.70;;;11.40;;
3101;SDS011;1561;42.666;23.392;2023-05-10T01:25:58;13.07;;;10.70;;
3101;SDS011;1561;42.666;23.392;2023-05-10T01:34:27;14.17;;;11.33;;
3101;SDS011;1561;42.666;23.392;2023-05-10T01:46:09;11.43;;;9.43;;
3101;SDS011;1561;42.666;23.392;2023-05-10T01:51:50;11.97;;;10.43;;
3101;SDS011;1561;42.666;23.392;2023-05-10T02:07:52;10.57;;;8.87;;
3101;SDS011;1561;42.666;23.392;2023-05-10T02:13:22;9.63;;;7.50;;
3101;SDS011;1561;42.666;23.392;2023-05-10T02:15:49;9.40;;;8.10;;
3101;SDS011;1561;42.666;23.392;2023-05-10T02:18:17;7.43;;;6.50;;
3101;SDS011;1561;42.666;23.392;2023-05-10T02:23:50;9.37;;;7.90;;
3101;SDS011;1561;42.666;23.392;2023-05-10T02:26:19;8.90;;;7.97;;
3101;SDS011;1561;42.666;23.392;2023-05-10T02:35:01;8.30;;;6.50;;
3101;SDS011;1561;42.666;23.392;2023-05-10T02:37:29;7.63;;;6.80;;
3101;SDS011;1561;42.666;23.392;2023-05-10T02:39:57;7.83;;;6.03;;
3101;SDS011;1561;42.666;23.392;2023-05-10T02:45:28;8.70;;;7.53;;
3101;SDS011;1561;42.666;23.392;2023-05-10T02:47:55;6.47;;;5.83;;
3101;SDS011;1561;42.666;23.392;2023-05-10T02:50:27;8.53;;;6.40;;
3101;SDS011;1561;42.666;23.392;2023-05-10T02:52:59;7.20;;;6.50;;
3101;SDS011;1561;42.666;23.392;2023-05-10T02:58:39;8.50;;;6.83;;
3101;SDS011;1561;42.666;23.392;2023-05-10T03:07:15;7.80;;;7.00;;
3101;SDS011;1561;42.666;23.392;2023-05-10T03:12:52;9.87;;;7.27;;
3101;SDS011;1561;42.666;23.392;2023-05-10T03:18:33;8.80;;;6.83;;
3101;SDS011;1561;42.666;23.392;2023-05-10T03:21:03;7.40;;;6.27;;
3101;SDS011;1561;42.666;23.392;2023-05-10T03:35:31;7.27;;;6.07;;
3101;SDS011;1561;42.666;23.392;2023-05-10T03:37:58;9.33;;;6.83;;
3101;SDS011;1561;42.666;23.392;2023-05-10T03:40:25;9.73;;;7.40;;
3101;SDS011;1561;42.666;23.392;2023-05-10T03:42:53;7.23;;;6.17;;
3101;SDS011;1561;42.666;23.392;2023-05-10T03:51:28;7.10;;;6.40;;
3101;SDS011;1561;42.666;23.392;2023-05-10T03:56:59;7.10;;;6.30;;
3101;SDS011;1561;42.666;23.392;2023-05-10T03:59:26;8.30;;;6.30;;
3101;SDS011;1561;42.666;23.392;2023-05-10T04:01:56;8.03;;;7.23;;
3101;SDS011;1561;42.666;23.392;2023-05-10T04:07:27;9.50;;;6.83;;
3101;SDS011;1561;42.666;23.392;2023-05-10T04:09:54;10.97;;;7.10;;
3101;SDS011;1561;42.666;23.392;2023-05-10T04:12:23;8.67;;;7.70;;
3101;SDS011;1561;42.666;23.392;2023-05-10T04:15:13;9.00;;;8.10;;
3101;SDS011;1561;42.666;23.392;2023-05-10T04:17:43;8.00;;;7.20;;
3101;SDS011;1561;42.666;23.392;2023-05-10T04:20:11;7.40;;;6.60;;
3101;SDS011;1561;42.666;23.392;2023-05-10T04:31:37;8.93;;;6.87;;
3101;SDS011;1561;42.666;23.392;2023-05-10T04:34:05;8.07;;;6.93;;
3101;SDS011;1561;42.666;23.392;2023-05-10T04:36:32;8.10;;;7.27;;
3101;SDS011;1561;42.666;23.392;2023-05-10T04:42:04;7.77;;;6.87;;
3101;SDS011;1561;42.666;23.392;2023-05-10T04:44:34;6.90;;;5.43;;
3101;SDS011;1561;42.666;23.392;2023-05-10T04:47:04;6.53;;;5.60;;
3101;SDS011;1561;42.666;23.392;2023-05-10T04:49:38;7.13;;;6.40;;
3101;SDS011;1561;42.666;23.392;2023-05-10T04:52:08;8.13;;;5.70;;
3101;SDS011;1561;42.666;23.392;2023-05-10T04:57:38;7.67;;;6.70;;
3101;SDS011;1561;42.666;23.392;2023-05-10T05:00:07;9.80;;;7.20;;
3101;SDS011;1561;42.666;23.392;2023-05-10T05:02:41;7.77;;;6.90;;
3101;SDS011;1561;42.666;23.392;2023-05-10T05:05:17;8.17;;;7.37;;
3101;SDS011;1561;42.666;23.392;2023-05-10T05:07:47;10.27;;;8.07;;
3101;SDS011;1561;42.666;23.392;2023-05-10T05:10:14;10.27;;;7.93;;
3101;SDS011;1561;42.666;23.392;2023-05-10T05:12:41;9.43;;;7.00;;
3101;SDS011;1561;42.666;23.392;2023-05-10T05:15:07;10.00;;;8.13;;
3101;SDS011;1561;42.666;23.392;2023-05-10T05:17:34;19.90;;;10.60;;
3101;SDS011;1561;42.666;23.392;2023-05-10T05:22:59;9.10;;;7.83;;
3101;SDS011;1561;42.666;23.392;2023-05-10T05:25:32;11.13;;;9.20;;
3101;SDS011;1561;42.666;23.392;2023-05-10T05:27:59;11.70;;;8.07;;
3101;SDS011;1561;42.666;23.392;2023-05-10T05:30:25;9.67;;;8.33;;
3101;SDS011;1561;42.666;23.392;2023-05-10T05:35:55;11.47;;;8.90;;
3101;SDS011;1561;42.666;23.392;2023-05-10T05:38:24;10.40;;;8.97;;
3101;SDS011;1561;42.666;23.392;2023-05-10T05:40:52;11.07;;;8.20;;
3101;SDS011;1561;42.666;23.392;2023-05-10T05:43:19;8.03;;;7.20;;
3101;SDS011;1561;42.666;23.392;2023-05-10T05:45:45;10.17;;;6.93;;
3101;SDS011;1561;42.666;23.392;2023-05-10T05:48:12;9.57;;;7.70;;
3101;SDS011;1561;42.666;23.392;2023-05-10T05:50:39;15.73;;;8.83;;
3101;SDS011;1561;42.666;23.392;2023-05-10T05:53:14;11.80;;;8.83;;
3101;SDS011;1561;42.666;23.392;2023-05-10T05:55:45;9.50;;;7.57;;
3101;SDS011;1561;42.666;23.392;2023-05-10T05:58:16;16.27;;;9.17;;
3101;SDS011;1561;42.666;23.392;2023-05-10T06:00:43;11.93;;;7.43;;
3101;SDS011;1561;42.666;23.392;2023-05-10T06:03:11;11.40;;;8.47;;
3101;SDS011;1561;42.666;23.392;2023-05-10T06:05:38;11.17;;;8.30;;
3101;SDS011;1561;42.666;23.392;2023-05-10T06:08:15;9.43;;;7.73;;
3101;SDS011;1561;42.666;23.392;2023-05-10T06:10:43;8.70;;;7.57;;
3101;SDS011;1561;42.666;23.392;2023-05-10T06:13:17;8.73;;;7.93;;
3101;SDS011;1561;42.666;23.392;2023-05-10T06:15:44;7.40;;;6.57;;
3101;SDS011;1561;42.666;23.392;2023-05-10T06:18:15;10.90;;;7.57;;
3101;SDS011;1561;42.666;23.392;2023-05-10T06:20:49;10.03;;;7.90;;
3101;SDS011;1561;42.666;23.392;2023-05-10T06:23:19;11.93;;;8.60;;
3101;SDS011;1561;42.666;23.392;2023-05-10T06:25:59;11.83;;;7.80;;
3101;SDS011;1561;42.666;23.392;2023-05-10T06:28:26;7.73;;;6.93;;
3101;SDS011;1561;42.666;23.392;2023-05-10T06:31:03;10.03;;;8.30;;
3101;SDS011;1561;42.666;23.392;2023-05-10T06:33:36;12.33;;;8.30;;
3101;SDS011;1561;42.666;23.392;2023-05-10T06:36:06;10.13;;;6.63;;
3101;SDS011;1561;42.666;23.392;2023-05-10T06:38:34;13.17;;;7.30;;
3101;SDS011;1561;42.666;23.392;2023-05-10T06:41:27;11.50;;;8.00;;
3101;SDS011;1561;42.666;23.392;2023-05-10T06:43:54;9.43;;;6.87;;
3101;SDS011;1561;42.666;23.392;2023-05-10T06:46:21;11.80;;;7.37;;
3101;SDS011;1561;42.666;23.392;2023-05-10T06:48:48;11.33;;;7.57;;
3101;SDS011;1561;42.666;23.392;2023-05-10T06:51:15;8.40;;;7.50;;
3101;SDS011;1561;42.666;23.392;2023-05-10T06:53:46;8.23;;;6.63;;
3101;SDS011;1561;42.666;23.392;2023-05-10T06:56:12;13.13;;;6.90;;
3101;SDS011;1561;42.666;23.392;2023-05-10T06:58:41;9.07;;;7.50;;
3101;SDS011;1561;42.666;23.392;2023-05-10T07:01:16;20.30;;;11.57;;
3101;SDS011;1561;42.666;23.392;2023-05-10T07:03:43;6.90;;;6.20;;
3101;SDS011;1561;42.666;23.392;2023-05-10T07:06:12;8.47;;;6.53;;
3101;SDS011;1561;42.666;23.392;2023-05-10T07:08:39;8.90;;;7.23;;
3101;SDS011;1561;42.666;23.392;2023-05-10T07:11:06;7.47;;;4.97;;
3101;SDS011;1561;42.666;23.392;2023-05-10T07:13:35;7.73;;;6.93;;
3101;SDS011;1561;42.666;23.392;2023-05-10T07:16:05;8.20;;;7.40;;
3101;SDS011;1561;42.666;23.392;2023-05-10T07:18:32;9.30;;;7.17;;
3101;SDS011;1561;42.666;23.392;2023-05-10T07:21:00;8.43;;;7.20;;
3101;SDS011;1561;42.666;23.392;2023-05-10T07:23:37;9.50;;;6.77;;
3101;SDS011;1561;42.666;23.392;2023-05-10T07:26:09;9.10;;;7.70;;
3101;SDS011;1561;42.666;23.392;2023-05-10T07:28:36;8.17;;;7.30;;
3101;SDS011;1561;42.666;23.392;2023-05-10T07:31:09;13.70;;;7.40;;
3101;SDS011;1561;42.666;23.392;2023-05-10T07:33:38;9.20;;;8.30;;
3101;SDS011;1561;42.666;23.392;2023-05-10T07:36:05;9.20;;;7.03;;
3101;SDS011;1561;42.666;23.392;2023-05-10T07:38:33;8.60;;;7.47;;
3101;SDS011;1561;42.666;23.392;2023-05-10T07:41:13;10.80;;;7.90;;
3101;SDS011;1561;42.666;23.392;2023-05-10T07:43:41;12.00;;;8.87;;
3101;SDS011;1561;42.666;23.392;2023-05-10T07:46:12;10.73;;;8.80;;
3101;SDS011;1561;42.666;23.392;2023-05-10T07:48:39;14.77;;;10.33;;
3101;SDS011;1561;42.666;23.392;2023-05-10T07:51:10;13.70;;;9.47;;
3101;SDS011;1561;42.666;23.392;2023-05-10T07:53:40;10.63;;;9.07;;
3101;SDS011;1561;42.666;23.392;2023-05-10T07:56:22;12.77;;;7.47;;
3101;SDS011;1561;42.666;23.392;2023-05-10T07:58:55;9.77;;;7.73;;
3101;SDS011;1561;42.666;23.392;2023-05-10T08:01:24;10.23;;;9.13;;
3101;SDS011;1561;42.666;23.392;2023-05-10T08:03:52;10.23;;;9.23;;
3101;SDS011;1561;42.666;23.392;2023-05-10T08:06:19;12.67;;;8.80;;
3101;SDS011;1561;42.666;23.392;2023-05-10T08:08:55;12.33;;;9.93;;
3101;SDS011;1561;42.666;23.392;2023-05-10T08:11:25;21.40;;;11.33;;
3101;SDS011;1561;42.666;23.392;2023-05-10T08:13:54;10.80;;;8.20;;
3101;SDS011;1561;42.666;23.392;2023-05-10T08:16:35;16.97;;;10.80;;
3101;SDS011;1561;42.666;23.392;2023-05-10T08:19:02;12.73;;;9.20;;
3101;SDS011;1561;42.666;23.392;2023-05-10T08:21:30;10.97;;;9.10;;
3101;SDS011;1561;42.666;23.392;2023-05-10T08:24:05;11.00;;;9.43;;
3101;SDS011;1561;42.666;23.392;2023-05-10T08:26:34;12.70;;;9.47;;
3101;SDS011;1561;42.666;23.392;2023-05-10T08:29:07;14.90;;;10.70;;
3101;SDS011;1561;42.666;23.392;2023-05-10T08:31:44;14.33;;;10.23;;
3101;SDS011;1561;42.666;23.392;2023-05-10T08:34:15;13.77;;;10.27;;
3101;SDS011;1561;42.666;23.392;2023-05-10T08:36:43;10.60;;;9.13;;
3101;SDS011;1561;42.666;23.392;2023-05-10T08:39:10;11.17;;;8.47;;
3101;SDS011;1561;42.666;23.392;2023-05-10T08:41:57;9.27;;;8.27;;
3101;SDS011;1561;42.666;23.392;2023-05-10T08:47:22;8.90;;;8.00;;
3101;SDS011;1561;42.666;23.392;2023-05-10T08:49:50;10.80;;;8.60;;
3101;SDS011;1561;42.666;23.392;2023-05-10T08:52:19;9.20;;;8.30;;
3101;SDS011;1561;42.666;23.392;2023-05-10T08:54:47;11.90;;;7.97;;
3101;SDS011;1561;42.666;23.392;2023-05-10T08:57:16;13.10;;;10.97;;
3101;SDS011;1561;42.666;23.392;2023-05-10T09:03:15;10.10;;;9.07;;
3101;SDS011;1561;42.666;23.392;2023-05-10T09:05:44;12.93;;;10.20;;
3101;SDS011;1561;42.666;23.392;2023-05-10T09:14:05;12.07;;;10.77;;
3101;SDS011;1561;42.666;23.392;2023-05-10T09:16:35;13.47;;;10.53;;
3101;SDS011;1561;42.666;23.392;2023-05-10T09:22:12;13.27;;;11.07;;
3101;SDS011;1561;42.666;23.392;2023-05-10T09:24:39;27.80;;;18.10;;
3101;SDS011;1561;42.666;23.392;2023-05-10T09:27:10;14.40;;;11.57;;
3101;SDS011;1561;42.666;23.392;2023-05-10T09:29:41;13.47;;;11.87;;
3101;SDS011;1561;42.666;23.392;2023-05-10T09:32:12;15.63;;;11.80;;
3101;SDS011;1561;42.666;23.392;2023-05-10T09:34:47;14.17;;;12.50;;
3101;SDS011;1561;42.666;23.392;2023-05-10T09:37:30;12.90;;;11.60;;
3101;SDS011;1561;42.666;23.392;2023-05-10T09:39:59;12.27;;;10.17;;
3101;SDS011;1561;42.666;23.392;2023-05-10T09:42:25;11.23;;;8.40;;
3101;SDS011;1561;42.666;23.392;2023-05-10T09:45:06;10.40;;;9.37;;
3101;SDS011;1561;42.666;23.392;2023-05-10T09:47:41;8.93;;;8.03;;
3101;SDS011;1561;42.666;23.392;2023-05-10T09:50:09;11.40;;;9.43;;
3101;SDS011;1561;42.666;23.392;2023-05-10T09:52:49;8.10;;;7.40;;
3101;SDS011;1561;42.666;23.392;2023-05-10T09:55:18;9.20;;;8.40;;
3101;SDS011;1561;42.666;23.392;2023-05-10T09:58:00;8.63;;;7.83;;
3101;SDS011;1561;42.666;23.392;2023-05-10T10:00:27;8.40;;;7.60;;
3101;SDS011;1561;42.666;23.392;2023-05-10T10:03:12;8.80;;;8.00;;
3101;SDS011;1561;42.666;23.392;2023-05-10T10:05:48;9.80;;;8.80;;
3101;SDS011;1561;42.666;23.392;2023-05-10T10:08:27;11.30;;;9.40;;
3101;SDS011;1561;42.666;23.392;2023-05-10T10:10:59;9.70;;;7.17;;
3101;SDS011;1561;42.666;23.392;2023-05-10T10:13:27;8.33;;;6.60;;
3101;SDS011;1561;42.666;23.392;2023-05-10T10:15:54;9.63;;;8.13;;
3101;SDS011;1561;42.666;23.392;2023-05-10T10:18:29;6.70;;;6.10;;
3101;SDS011;1561;42.666;23.392;2023-05-10T10:21:07;7.00;;;5.60;;
3101;SDS011;1561;42.666;23.392;2023-05-10T10:23:37;11.13;;;7.43;;
3101;SDS011;1561;42.666;23.392;2023-05-10T10:26:06;7.00;;;6.30;;
3101;SDS011;1561;42.666;23.392;2023-05-10T10:28:44;7.73;;;6.70;;
3101;SDS011;1561;42.666;23.392;2023-05-10T10:31:17;10.63;;;7.87;;
3101;SDS011;1561;42.666;23.392;2023-05-10T10:33:56;8.80;;;7.90;;
3101;SDS011;1561;42.666;23.392;2023-05-10T10:36:25;6.47;;;5.80;;
3101;SDS011;1561;42.666;23.392;2023-05-10T10:39:01;7.20;;;6.30;;
3101;SDS011;1561;42.666;23.392;2023-05-10T10:41:30;11.33;;;7.07;;
3101;SDS011;1561;42.666;23.392;2023-05-10T10:49:48;9.13;;;6.90;;
3101;SDS011;1561;42.666;23.392;2023-05-10T10:52:23;11.47;;;8.00;;
3101;SDS011;1561;42.666;23.392;2023-05-10T10:57:50;10.27;;;8.27;;
3101;SDS011;1561;42.666;23.392;2023-05-10T11:00:28;14.60;;;9.30;;
3101;SDS011;1561;42.666;23.392;2023-05-10T11:03:03;8.80;;;7.43;;
3101;SDS011;1561;42.666;23.392;2023-05-10T11:05:47;7.50;;;6.80;;
3101;SDS011;1561;42.666;23.392;2023-05-10T11:08:27;12.10;;;9.90;;
3101;SDS011;1561;42.666;23.392;2023-05-10T11:11:04;9.60;;;8.13;;
3101;SDS011;1561;42.666;23.392;2023-05-10T11:13:49;7.70;;;7.00;;
3101;SDS011;1561;42.666;23.392;2023-05-10T11:16:21;8.00;;;7.20;;
3101;SDS011;1561;42.666;23.392;2023-05-10T11:19:02;10.10;;;7.50;;
3101;SDS011;1561;42.666;23.392;2023-05-10T11:21:46;10.57;;;7.83;;
3101;SDS011;1561;42.666;23.392;2023-05-10T11:24:40;7.00;;;6.30;;
3101;SDS011;1561;42.666;23.392;2023-05-10T11:27:29;6.60;;;6.00;;
3101;SDS011;1561;42.666;23.392;2023-05-10T11:30:04;7.33;;;6.27;;
3101;SDS011;1561;42.666;23.392;2023-05-10T11:32:35;9.20;;;7.13;;
3101;SDS011;1561;42.666;23.392;2023-05-10T11:35:12;12.37;;;9.97;;
3101;SDS011;1561;42.666;23.392;2023-05-10T11:37:41;7.83;;;7.03;;
3101;SDS011;1561;42.666;23.392;2023-05-10T11:40:13;7.40;;;6.00;;
3101;SDS011;1561;42.666;23.392;2023-05-10T11:42:52;7.33;;;6.33;;
3101;SDS011;1561;42.666;23.392;2023-05-10T11:45:41;8.50;;;7.60;;
3101;SDS011;1561;42.666;23.392;2023-05-10T11:48:08;6.93;;;6.20;;
3101;SDS011;1561;42.666;23.392;2023-05-10T11:50:49;8.80;;;6.10;;
3101;SDS011;1561;42.666;23.392;2023-05-10T11:53:30;9.10;;;7.40;;
3101;SDS011;1561;42.666;23.392;2023-05-10T11:56:05;10.77;;;8.00;;
3101;SDS011;1561;42.666;23.392;2023-05-10T12:07:21;10.07;;;7.80;;
3101;SDS011;1561;42.666;23.392;2023-05-10T12:10:11;8.47;;;6.87;;
3101;SDS011;1561;42.666;23.392;2023-05-10T12:12:45;12.90;;;9.93;;
3101;SDS011;1561;42.666;23.392;2023-05-10T12:15:17;16.80;;;8.83;;
3101;SDS011;1561;42.666;23.392;2023-05-10T12:17:53;9.50;;;8.57;;
3101;SDS011;1561;42.666;23.392;2023-05-10T12:20:20;13.93;;;8.43;;
3101;SDS011;1561;42.666;23.392;2023-05-10T12:23:07;10.73;;;7.90;;
3101;SDS011;1561;42.666;23.392;2023-05-10T12:25:38;8.63;;;7.60;;
3101;SDS011;1561;42.666;23.392;2023-05-10T12:28:06;10.40;;;8.50;;
3101;SDS011;1561;42.666;23.392;2023-05-10T12:30:36;13.73;;;7.37;;
3101;SDS011;1561;42.666;23.392;2023-05-10T12:33:08;9.50;;;7.43;;
3101;SDS011;1561;42.666;23.392;2023-05-10T12:35:43;10.80;;;7.93;;
3101;SDS011;1561;42.666;23.392;2023-05-10T12:40:58;12.13;;;9.43;;
3101;SDS011;1561;42.666;23.392;2023-05-10T12:43:29;10.30;;;9.20;;
3101;SDS011;1561;42.666;23.392;2023-05-10T12:45:58;10.83;;;9.53;;
3101;SDS011;1561;42.666;23.392;2023-05-10T12:48:31;11.03;;;9.33;;
3101;SDS011;1561;42.666;23.392;2023-05-10T12:51:00;11.23;;;7.97;;
3101;SDS011;1561;42.666;23.392;2023-05-10T12:53:42;9.67;;;8.20;;
3101;SDS011;1561;42.666;23.392;2023-05-10T12:56:26;12.17;;;8.33;;
3101;SDS011;1561;42.666;23.392;2023-05-10T13:01:42;11.17;;;9.00;;
3101;SDS011;1561;42.666;23.392;2023-05-10T13:04:25;9.80;;;8.70;;
3101;SDS011;1561;42.666;23.392;2023-05-10T13:06:57;12.80;;;8.80;;
3101;SDS011;1561;42.666;23.392;2023-05-10T13:09:29;11.87;;;8.60;;
3101;SDS011;1561;42.666;23.392;2023-05-10T13:12:07;10.03;;;7.50;;
3101;SDS011;1561;42.666;23.392;2023-05-10T13:14:37;8.53;;;7.73;;
3101;SDS011;1561;42.666;23.392;2023-05-10T13:17:10;8.73;;;7.80;;
3101;SDS011;1561;42.666;23.392;2023-05-10T13:19:40;8.83;;;7.30;;
3101;SDS011;1561;42.666;23.392;2023-05-10T13:22:09;11.03;;;7.17;;
3101;SDS011;1561;42.666;23.392;2023-05-10T13:24:49;8.20;;;6.90;;
3101;SDS011;1561;42.666;23.392;2023-05-10T13:27:34;7.50;;;6.60;;
3101;SDS011;1561;42.666;23.392;2023-05-10T13:30:05;8.17;;;7.37;;
3101;SDS011;1561;42.666;23.392;2023-05-10T13:32:38;7.77;;;6.73;;
3101;SDS011;1561;42.666;23.392;2023-05-10T13:35:12;8.60;;;7.40;;
3101;SDS011;1561;42.666;23.392;2023-05-10T13:37:54;8.27;;;7.40;;
3101;SDS011;1561;42.666;23.392;2023-05-10T13:40:26;7.10;;;6.30;;
3101;SDS011;1561;42.666;23.392;2023-05-10T13:42:58;11.83;;;8.13;;
3101;SDS011;1561;42.666;23.392;2023-05-10T13:45:34;8.40;;;7.40;;
3101;SDS011;1561;42.666;23.392;2023-05-10T13:48:01;9.00;;;8.13;;
3101;SDS011;1561;42.666;23.392;2023-05-10T13:50:29;16.77;;;9.30;;
3101;SDS011;1561;42.666;23.392;2023-05-10T13:53:06;13.20;;;7.20;;
3101;SDS011;1561;42.666;23.392;2023-05-10T13:58:39;10.70;;;7.83;;
3101;SDS011;1561;42.666;23.392;2023-05-10T14:01:08;9.20;;;8.30;;
3101;SDS011;1561;42.666;23.392;2023-05-10T14:03:37;8.80;;;7.90;;
3101;SDS011;1561;42.666;23.392;2023-05-10T14:06:12;9.47;;;7.90;;
3101;SDS011;1561;42.666;23.392;2023-05-10T14:08:47;8.43;;;7.63;;
3101;SDS011;1561;42.666;23.392;2023-05-10T14:11:17;11.43;;;8.67;;
3101;SDS011;1561;42.666;23.392;2023-05-10T14:13:49;11.17;;;8.57;;
3101;SDS011;1561;42.666;23.392;2023-05-10T14:16:18;7.83;;;7.13;;
3101;SDS011;1561;42.666;23.392;2023-05-10T14:18:54;10.93;;;7.90;;
3101;SDS011;1561;42.666;23.392;2023-05-10T14:21:21;11.70;;;8.57;;
3101;SDS011;1561;42.666;23.392;2023-05-10T14:23:50;10.20;;;8.70;;
3101;SDS011;1561;42.666;23.392;2023-05-10T14:26:26;10.43;;;8.03;;
3101;SDS011;1561;42.666;23.392;2023-05-10T14:29:17;10.37;;;8.70;;
3101;SDS011;1561;42.666;23.392;2023-05-10T14:31:55;10.10;;;8.33;;
3101;SDS011;1561;42.666;23.392;2023-05-10T14:34:28;10.70;;;9.47;;
3101;SDS011;1561;42.666;23.392;2023-05-10T14:36:59;9.43;;;8.50;;
3101;SDS011;1561;42.666;23.392;2023-05-10T14:39:39;18.23;;;10.83;;
3101;SDS011;1561;42.666;23.392;2023-05-10T14:42:11;14.30;;;9.10;;
3101;SDS011;1561;42.666;23.392;2023-05-10T14:44:56;11.20;;;8.60;;
3101;SDS011;1561;42.666;23.392;2023-05-10T14:47:33;12.20;;;8.20;;
3101;SDS011;1561;42.666;23.392;2023-05-10T14:50:15;10.60;;;9.20;;
3101;SDS011;1561;42.666;23.392;2023-05-10T14:55:59;14.47;;;8.67;;
3101;SDS011;1561;42.666;23.392;2023-05-10T14:58:34;10.13;;;8.93;;
3101;SDS011;1561;42.666;23.392;2023-05-10T15:04:07;7.70;;;6.90;;
3101;SDS011;1561;42.666;23.392;2023-05-10T15:06:36;9.67;;;8.50;;
3101;SDS011;1561;42.666;23.392;2023-05-10T15:09:46;19.03;;;12.03;;
3101;SDS011;1561;42.666;23.392;2023-05-10T15:12:26;8.23;;;5.93;;
3101;SDS011;1561;42.666;23.392;2023-05-10T15:15:27;10.33;;;7.80;;
3101;SDS011;1561;42.666;23.392;2023-05-10T15:17:53;8.10;;;7.30;;
3101;SDS011;1561;42.666;23.392;2023-05-10T15:20:34;9.07;;;8.03;;
3101;SDS011;1561;42.666;23.392;2023-05-10T15:23:04;8.70;;;7.90;;
3101;SDS011;1561;42.666;23.392;2023-05-10T15:25:35;9.73;;;7.77;;
3101;SDS011;1561;42.666;23.392;2023-05-10T15:28:02;10.13;;;7.80;;
3101;SDS011;1561;42.666;23.392;2023-05-10T15:30:29;9.60;;;8.30;;
3101;SDS011;1561;42.666;23.392;2023-05-10T15:32:56;8.50;;;7.03;;
3101;SDS011;1561;42.666;23.392;2023-05-10T15:35:23;9.73;;;7.97;;
3101;SDS011;1561;42.666;23.392;2023-05-10T15:40:34;8.20;;;7.30;;
3101;SDS011;1561;42.666;23.392;2023-05-10T15:43:08;12.03;;;8.80;;
3101;SDS011;1561;42.666;23.392;2023-05-10T15:45:35;8.50;;;7.60;;
3101;SDS011;1561;42.666;23.392;2023-05-10T15:48:03;8.63;;;7.83;;
3101;SDS011;1561;42.666;23.392;2023-05-10T15:50:32;10.70;;;7.73;;
3101;SDS011;1561;42.666;23.392;2023-05-10T15:53:12;9.37;;;8.17;;
3101;SDS011;1561;42.666;23.392;2023-05-10T15:58:28;14.47;;;9.37;;
3101;SDS011;1561;42.666;23.392;2023-05-10T16:00:55;10.17;;;8.10;;
3101;SDS011;1561;42.666;23.392;2023-05-10T16:03:30;13.93;;;10.00;;
3101;SDS011;1561;42.666;23.392;2023-05-10T16:06:12;8.73;;;7.30;;
3101;SDS011;1561;42.666;23.392;2023-05-10T16:08:57;8.60;;;7.70;;
3101;SDS011;1561;42.666;23.392;2023-05-10T16:11:25;9.30;;;8.30;;
3101;SDS011;1561;42.666;23.392;2023-05-10T16:14:06;9.57;;;7.30;;
3101;SDS011;1561;42.666;23.392;2023-05-10T16:16:42;10.53;;;8.80;;
3101;SDS011;1561;42.666;23.392;2023-05-10T16:19:10;8.33;;;7.27;;
3101;SDS011;1561;42.666;23.392;2023-05-10T16:21:37;15.63;;;11.30;;
3101;SDS011;1561;42.666;23.392;2023-05-10T16:24:06;9.00;;;8.10;;
3101;SDS011;1561;42.666;23.392;2023-05-10T16:26:39;9.77;;;8.77;;
3101;SDS011;1561;42.666;23.392;2023-05-10T16:29:11;14.90;;;10.37;;
3101;SDS011;1561;42.666;23.392;2023-05-10T16:31:44;11.40;;;10.20;;
3101;SDS011;1561;42.666;23.392;2023-05-10T16:34:11;16.30;;;8.87;;
3101;SDS011;1561;42.666;23.392;2023-05-10T16:36:40;15.30;;;11.37;;
3101;SDS011;1561;42.666;23.392;2023-05-10T16:39:09;8.90;;;7.83;;
3101;SDS011;1561;42.666;23.392;2023-05-10T16:41:39;9.53;;;8.20;;
3101;SDS011;1561;42.666;23.392;2023-05-10T16:44:11;11.00;;;8.43;;
3101;SDS011;1561;42.666;23.392;2023-05-10T16:46:58;14.03;;;7.73;;
3101;SDS011;1561;42.666;23.392;2023-05-10T16:49:40;10.47;;;8.20;;
3101;SDS011;1561;42.666;23.392;2023-05-10T16:52:22;8.43;;;7.53;;
3101;SDS011;1561;42.666;23.392;2023-05-10T16:55:03;11.03;;;8.00;;
3101;SDS011;1561;42.666;23.392;2023-05-10T17:01:03;9.23;;;7.73;;
3101;SDS011;1561;42.666;23.392;2023-05-10T17:03:38;12.37;;;8.77;;
3101;SDS011;1561;42.666;23.392;2023-05-10T17:06:21;9.23;;;7.60;;
3101;SDS011;1561;42.666;23.392;2023-05-10T17:08:54;11.50;;;8.93;;
3101;SDS011;1561;42.666;23.392;2023-05-10T17:14:24;11.67;;;9.63;;
3101;SDS011;1561;42.666;23.392;2023-05-10T17:17:10;11.90;;;10.13;;
3101;SDS011;1561;42.666;23.392;2023-05-10T17:25:39;13.07;;;10.23;;
3101;SDS011;1561;42.666;23.392;2023-05-10T17:28:11;11.23;;;9.93;;
3101;SDS011;1561;42.666;23.392;2023-05-10T17:36:18;12.50;;;10.80;;
3101;SDS011;1561;42.666;23.392;2023-05-10T17:38:44;11.70;;;10.20;;
3101;SDS011;1561;42.666;23.392;2023-05-10T17:41:23;11.50;;;8.60;;
3101;SDS011;1561;42.666;23.392;2023-05-10T17:46:59;16.10;;;11.53;;
3101;SDS011;1561;42.666;23.392;2023-05-10T17:49:27;13.33;;;11.10;;
3101;SDS011;1561;42.666;23.392;2023-05-10T17:51:58;14.63;;;9.70;;
3101;SDS011;1561;42.666;23.392;2023-05-10T17:54:27;12.20;;;9.20;;
3101;SDS011;1561;42.666;23.392;2023-05-10T17:56:57;11.00;;;9.63;;
3101;SDS011;1561;42.666;23.392;2023-05-10T17:59:30;10.37;;;9.27;;
3101;SDS011;1561;42.666;23.392;2023-05-10T18:02:00;11.47;;;10.37;;
3101;SDS011;1561;42.666;23.392;2023-05-10T18:04:29;9.67;;;8.67;;
3101;SDS011;1561;42.666;23.392;2023-05-10T18:07:02;11.40;;;9.20;;
3101;SDS011;1561;42.666;23.392;2023-05-10T18:09:29;16.20;;;9.90;;
3101;SDS011;1561;42.666;23.392;2023-05-10T18:12:00;10.30;;;9.17;;
3101;SDS011;1561;42.666;23.392;2023-05-10T18:14:29;11.40;;;8.80;;
3101;SDS011;1561;42.666;23.392;2023-05-10T18:16:56;10.93;;;9.60;;
3101;SDS011;1561;42.666;23.392;2023-05-10T18:19:23;10.93;;;9.83;;
3101;SDS011;1561;42.666;23.392;2023-05-10T18:21:56;9.60;;;8.60;;
3101;SDS011;1561;42.666;23.392;2023-05-10T18:24:26;11.90;;;9.97;;
3101;SDS011;1561;42.666;23.392;2023-05-10T18:26:53;11.17;;;9.80;;
3101;SDS011;1561;42.666;23.392;2023-05-10T18:29:23;14.10;;;9.50;;
3101;SDS011;1561;42.666;23.392;2023-05-10T18:31:52;12.30;;;10.40;;
3101;SDS011;1561;42.666;23.392;2023-05-10T18:34:19;12.50;;;10.07;;
3101;SDS011;1561;42.666;23.392;2023-05-10T18:36:51;10.10;;;9.10;;
3101;SDS011;1561;42.666;23.392;2023-05-10T18:39:20;11.17;;;9.23;;
3101;SDS011;1561;42.666;23.392;2023-05-10T18:41:52;10.50;;;9.43;;
3101;SDS011;1561;42.666;23.392;2023-05-10T18:44:31;10.30;;;9.20;;
3101;SDS011;1561;42.666;23.392;2023-05-10T18:47:02;11.40;;;9.77;;
3101;SDS011;1561;42.666;23.392;2023-05-10T18:49:45;10.67;;;8.87;;
3101;SDS011;1561;42.666;23.392;2023-05-10T18:52:13;10.90;;;8.47;;
3101;SDS011;1561;42.666;23.392;2023-05-10T18:54:44;9.70;;;8.53;;
3101;SDS011;1561;42.666;23.392;2023-05-10T18:57:16;9.80;;;8.90;;
3101;SDS011;1561;42.666;23.392;2023-05-10T18:59:54;11.20;;;8.67;;
3101;SDS011;1561;42.666;23.392;2023-05-10T19:02:39;10.33;;;9.10;;
3101;SDS011;1561;42.666;23.392;2023-05-10T19:05:18;13.27;;;10.10;;
3101;SDS011;1561;42.666;23.392;2023-05-10T19:07:53;11.47;;;9.57;;
3101;SDS011;1561;42.666;23.392;2023-05-10T19:10:23;10.23;;;9.10;;
3101;SDS011;1561;42.666;23.392;2023-05-10T19:18:48;12.57;;;10.07;;